sensor_id;sensor_type;location;lat;lon;timestamp;P1;durP1;ratioP1;P2;durP2;ratioP2
9007;SDS011;62813;51.424;6.762;2023-05-10T00:01:27;9.87;;;8.97;;
9007;SDS011;62813;51.424;6.762;2023-05-10T00:03:54;9.47;;;8.57;;
9007;SDS011;62813;51.424;6.762;2023-05-10T00:06:20;9.87;;;8.97;;
9007;SDS011;62813;51.424;6.762;2023-05-10T00:08:47;9.73;;;8.83;;
9007;SDS011;62813;51.424;6.762;2023-05-10T00:11:14;9.60;;;8.67;;
9007;SDS011;62813;51.424;6.762;2023-05-10T00:13:41;10.93;;;9.20;;
9007;SDS011;62813;51.424;6.762;2023-05-10T00:16:08;12.03;;;10.27;;
9007;SDS011;62813;51.424;6.762;2023-05-10T00:18:35;10.50;;;9.40;;
9007;SDS011;62813;51.424;6.762;2023-05-10T00:21:01;9.73;;;8.73;;
9007;SDS011;62813;51.424;6.762;2023-05-10T00:23:28;9.20;;;8.23;;
9007;SDS011;62813;51.424;6.762;2023-05-10T00:25:55;8.80;;;8.00;;
9007;SDS011;62813;51.424;6.762;2023-05-10T00:28:22;9.50;;;8.60;;
9007;SDS011;62813;51.424;6.762;2023-05-10T00:30:48;8.47;;;7.67;;
9007;SDS011;62813;51.424;6.762;2023-05-10T00:33:15;11.07;;;7.43;;
9007;SDS011;62813;51.424;6.762;2023-05-10T00:35:42;9.97;;;7.47;;
9007;SDS011;62813;51.424;6.762;2023-05-10T00:38:09;10.03;;;8.47;;
9007;SDS011;62813;51.424;6.762;2023-05-10T00:40:36;8.73;;;7.83;;
9007;SDS011;62813;51.424;6.762;2023-05-10T00:43:06;9.07;;;7.77;;
9007;SDS011;62813;51.424;6.762;2023-05-10T00:45:32;9.63;;;7.97;;
9007;SDS011;62813;51.424;6.762;2023-05-10T00:48:00;9.27;;;8.13;;
9007;SDS011;62813;51.424;6.762;2023-05-10T00:50:29;9.40;;;8.40;;
9007;SDS011;62813;51.424;6.762;2023-05-10T00:52:56;8.43;;;7.43;;
9007;SDS011;62813;51.424;6.762;2023-05-10T00:55:23;8.70;;;7.90;;
9007;SDS011;62813;51.424;6.762;2023-05-10T00:57:49;11.07;;;9.37;;
9007;SDS011;62813;51.424;6.762;2023-05-10T01:00:17;10.23;;;9.23;;
9007;SDS011;62813;51.424;6.762;2023-05-10T01:02:45;10.13;;;9.03;;
9007;SDS011;62813;51.424;6.762;2023-05-10T01:05:13;10.63;;;9.00;;
9007;SDS011;62813;51.424;6.762;2023-05-10T01:07:40;10.43;;;9.33;;
9007;SDS011;62813;51.424;6.762;2023-05-10T01:10:07;12.63;;;9.93;;
9007;SDS011;62813;51.424;6.762;2023-05-10T01:12:35;14.70;;;9.40;;
9007;SDS011;62813;51.424;6.762;2023-05-10T01:15:04;12.00;;;9.33;;
9007;SDS011;62813;51.424;6.762;2023-05-10T01:17:31;10.43;;;9.33;;
9007;SDS011;62813;51.424;6.762;2023-05-10T01:19:58;10.67;;;9.33;;
9007;SDS011;62813;51.424;6.762;2023-05-10T01:28:37;10.23;;;9.23;;
9007;SDS011;62813;51.424;6.762;2023-05-10T01:33:35;11.67;;;9.87;;
9007;SDS011;62813;51.424;6.762;2023-05-10T01:38:59;12.50;;;11.20;;
9007;SDS011;62813;51.424;6.762;2023-05-10T01:41:39;12.03;;;10.63;;
9007;SDS011;62813;51.424;6.762;2023-05-10T01:46:55;14.03;;;11.13;;
9007;SDS011;62813;51.424;6.762;2023-05-10T01:49:25;13.50;;;11.43;;
9007;SDS011;62813;51.424;6.762;2023-05-10T01:51:54;15.10;;;12.30;;
9007;SDS011;62813;51.424;6.762;2023-05-10T01:54:24;13.00;;;9.97;;
9007;SDS011;62813;51.424;6.762;2023-05-10T01:56:59;10.40;;;9.40;;
9007;SDS011;62813;51.424;6.762;2023-05-10T01:59:28;10.47;;;9.37;;
9007;SDS011;62813;51.424;6.762;2023-05-10T02:01:57;9.50;;;8.50;;
9007;SDS011;62813;51.424;6.762;2023-05-10T02:04:24;11.30;;;10.20;;
9007;SDS011;62813;51.424;6.762;2023-05-10T02:06:52;11.67;;;10.43;;
9007;SDS011;62813;51.424;6.762;2023-05-10T02:09:20;10.57;;;9.43;;
9007;SDS011;62813;51.424;6.762;2023-05-10T02:11:47;12.73;;;10.57;;
9007;SDS011;62813;51.424;6.762;2023-05-10T02:14:15;12.50;;;10.97;;
9007;SDS011;62813;51.424;6.762;2023-05-10T02:16:44;12.20;;;10.90;;
9007;SDS011;62813;51.424;6.762;2023-05-10T02:19:12;15.20;;;11.13;;
9007;SDS011;62813;51.424;6.762;2023-05-10T02:21:40;11.57;;;10.30;;
9007;SDS011;62813;51.424;6.762;2023-05-10T02:24:07;12.87;;;11.50;;
9007;SDS011;62813;51.424;6.762;2023-05-10T02:26:35;11.60;;;10.50;;
9007;SDS011;62813;51.424;6.762;2023-05-10T02:29:02;11.50;;;10.37;;
9007;SDS011;62813;51.424;6.762;2023-05-10T02:31:32;13.90;;;11.33;;
9007;SDS011;62813;51.424;6.762;2023-05-10T02:33:59;11.60;;;10.50;;
9007;SDS011;62813;51.424;6.762;2023-05-10T02:36:27;11.70;;;10.50;;
9007;SDS011;62813;51.424;6.762;2023-05-10T02:38:53;10.93;;;9.47;;
9007;SDS011;62813;51.424;6.762;2023-05-10T02:41:21;11.17;;;10.03;;
9007;SDS011;62813;51.424;6.762;2023-05-10T02:43:49;11.43;;;10.23;;
9007;SDS011;62813;51.424;6.762;2023-05-10T02:46:17;12.97;;;10.87;;
9007;SDS011;62813;51.424;6.762;2023-05-10T02:48:43;11.57;;;10.37;;
9007;SDS011;62813;51.424;6.762;2023-05-10T02:51:10;11.77;;;10.37;;
9007;SDS011;62813;51.424;6.762;2023-05-10T02:53:38;15.97;;;11.27;;
9007;SDS011;62813;51.424;6.762;2023-05-10T02:56:11;11.70;;;10.50;;
9007;SDS011;62813;51.424;6.762;2023-05-10T02:58:39;11.83;;;10.60;;
9007;SDS011;62813;51.424;6.762;2023-05-10T03:01:06;12.77;;;11.33;;
9007;SDS011;62813;51.424;6.762;2023-05-10T03:03:34;12.57;;;10.73;;
9007;SDS011;62813;51.424;6.762;2023-05-10T03:06:00;11.27;;;10.07;;
9007;SDS011;62813;51.424;6.762;2023-05-10T03:08:27;10.97;;;9.87;;
9007;SDS011;62813;51.424;6.762;2023-05-10T03:11:32;11.87;;;10.73;;
9007;SDS011;62813;51.424;6.762;2023-05-10T03:14:10;10.87;;;9.77;;
9007;SDS011;62813;51.424;6.762;2023-05-10T03:16:47;10.80;;;9.63;;
9007;SDS011;62813;51.424;6.762;2023-05-10T03:21:49;12.43;;;9.43;;
9007;SDS011;62813;51.424;6.762;2023-05-10T03:24:18;11.70;;;10.50;;
9007;SDS011;62813;51.424;6.762;2023-05-10T03:26:46;12.27;;;10.93;;
9007;SDS011;62813;51.424;6.762;2023-05-10T03:29:13;12.00;;;10.57;;
9007;SDS011;62813;51.424;6.762;2023-05-10T03:31:41;14.47;;;11.40;;
9007;SDS011;62813;51.424;6.762;2023-05-10T03:34:07;11.13;;;9.70;;
9007;SDS011;62813;51.424;6.762;2023-05-10T03:36:34;11.70;;;10.07;;
9007;SDS011;62813;51.424;6.762;2023-05-10T03:39:01;13.23;;;10.50;;
9007;SDS011;62813;51.424;6.762;2023-05-10T03:41:28;11.97;;;10.77;;
9007;SDS011;62813;51.424;6.762;2023-05-10T03:43:55;11.90;;;10.00;;
9007;SDS011;62813;51.424;6.762;2023-05-10T03:46:22;12.77;;;10.83;;
9007;SDS011;62813;51.424;6.762;2023-05-10T03:48:48;14.40;;;11.73;;
9007;SDS011;62813;51.424;6.762;2023-05-10T03:51:15;12.30;;;10.37;;
9007;SDS011;62813;51.424;6.762;2023-05-10T03:53:41;14.10;;;11.77;;
9007;SDS011;62813;51.424;6.762;2023-05-10T03:56:08;14.70;;;12.57;;
9007;SDS011;62813;51.424;6.762;2023-05-10T03:58:37;14.67;;;11.63;;
9007;SDS011;62813;51.424;6.762;2023-05-10T04:01:04;16.80;;;13.67;;
9007;SDS011;62813;51.424;6.762;2023-05-10T04:03:31;17.57;;;14.00;;
9007;SDS011;62813;51.424;6.762;2023-05-10T04:05:58;17.80;;;13.77;;
9007;SDS011;62813;51.424;6.762;2023-05-10T04:08:25;14.80;;;12.63;;
9007;SDS011;62813;51.424;6.762;2023-05-10T04:10:52;16.67;;;13.43;;
9007;SDS011;62813;51.424;6.762;2023-05-10T04:13:18;18.77;;;15.07;;
9007;SDS011;62813;51.424;6.762;2023-05-10T04:15:46;15.47;;;13.70;;
9007;SDS011;62813;51.424;6.762;2023-05-10T04:18:13;16.93;;;14.33;;
9007;SDS011;62813;51.424;6.762;2023-05-10T04:20:39;18.30;;;15.00;;
9007;SDS011;62813;51.424;6.762;2023-05-10T04:23:06;17.13;;;14.13;;
9007;SDS011;62813;51.424;6.762;2023-05-10T04:25:33;18.00;;;14.43;;
9007;SDS011;62813;51.424;6.762;2023-05-10T04:28:00;19.00;;;15.70;;
9007;SDS011;62813;51.424;6.762;2023-05-10T04:30:27;17.17;;;14.93;;
9007;SDS011;62813;51.424;6.762;2023-05-10T04:32:55;17.27;;;14.03;;
9007;SDS011;62813;51.424;6.762;2023-05-10T04:35:22;20.70;;;16.43;;
9007;SDS011;62813;51.424;6.762;2023-05-10T04:37:48;18.43;;;15.93;;
9007;SDS011;62813;51.424;6.762;2023-05-10T04:40:15;19.80;;;15.93;;
9007;SDS011;62813;51.424;6.762;2023-05-10T04:42:42;18.40;;;15.60;;
9007;SDS011;62813;51.424;6.762;2023-05-10T04:45:09;19.87;;;16.93;;
9007;SDS011;62813;51.424;6.762;2023-05-10T04:47:36;18.57;;;15.70;;
9007;SDS011;62813;51.424;6.762;2023-05-10T04:50:03;23.17;;;17.10;;
9007;SDS011;62813;51.424;6.762;2023-05-10T04:52:30;18.27;;;16.03;;
9007;SDS011;62813;51.424;6.762;2023-05-10T04:54:57;18.93;;;16.00;;
9007;SDS011;62813;51.424;6.762;2023-05-10T04:57:23;21.53;;;17.50;;
9007;SDS011;62813;51.424;6.762;2023-05-10T04:59:50;20.10;;;16.97;;
9007;SDS011;62813;51.424;6.762;2023-05-10T05:02:17;22.43;;;17.53;;
9007;SDS011;62813;51.424;6.762;2023-05-10T05:04:43;22.60;;;19.03;;
9007;SDS011;62813;51.424;6.762;2023-05-10T05:07:10;24.17;;;18.87;;
9007;SDS011;62813;51.424;6.762;2023-05-10T05:09:37;23.90;;;18.43;;
9007;SDS011;62813;51.424;6.762;2023-05-10T05:12:04;24.20;;;17.87;;
9007;SDS011;62813;51.424;6.762;2023-05-10T05:14:30;19.90;;;16.90;;
9007;SDS011;62813;51.424;6.762;2023-05-10T05:16:57;23.43;;;18.73;;
9007;SDS011;62813;51.424;6.762;2023-05-10T05:19:26;22.13;;;18.00;;
9007;SDS011;62813;51.424;6.762;2023-05-10T05:21:53;23.30;;;19.13;;
9007;SDS011;62813;51.424;6.762;2023-05-10T05:24:20;23.47;;;18.10;;
9007;SDS011;62813;51.424;6.762;2023-05-10T05:26:49;22.93;;;18.40;;
9007;SDS011;62813;51.424;6.762;2023-05-10T05:29:15;22.60;;;18.70;;
9007;SDS011;62813;51.424;6.762;2023-05-10T05:31:42;20.43;;;17.83;;
9007;SDS011;62813;51.424;6.762;2023-05-10T05:34:09;23.47;;;18.70;;
9007;SDS011;62813;51.424;6.762;2023-05-10T05:36:36;21.60;;;18.67;;
9007;SDS011;62813;51.424;6.762;2023-05-10T05:39:04;25.93;;;20.17;;
9007;SDS011;62813;51.424;6.762;2023-05-10T05:41:31;26.07;;;19.80;;
9007;SDS011;62813;51.424;6.762;2023-05-10T05:43:57;27.07;;;21.20;;
9007;SDS011;62813;51.424;6.762;2023-05-10T05:46:25;28.17;;;20.63;;
9007;SDS011;62813;51.424;6.762;2023-05-10T05:48:52;28.17;;;19.77;;
9007;SDS011;62813;51.424;6.762;2023-05-10T05:51:18;23.10;;;18.67;;
9007;SDS011;62813;51.424;6.762;2023-05-10T05:53:45;26.00;;;20.27;;
9007;SDS011;62813;51.424;6.762;2023-05-10T05:56:12;26.50;;;20.40;;
9007;SDS011;62813;51.424;6.762;2023-05-10T05:58:40;27.83;;;21.70;;
9007;SDS011;62813;51.424;6.762;2023-05-10T06:01:06;27.87;;;21.30;;
9007;SDS011;62813;51.424;6.762;2023-05-10T06:03:33;28.37;;;21.80;;
9007;SDS011;62813;51.424;6.762;2023-05-10T06:06:00;29.57;;;23.27;;
9007;SDS011;62813;51.424;6.762;2023-05-10T06:08:27;31.70;;;22.80;;
9007;SDS011;62813;51.424;6.762;2023-05-10T06:10:53;36.43;;;24.37;;
9007;SDS011;62813;51.424;6.762;2023-05-10T06:13:20;34.07;;;23.67;;
9007;SDS011;62813;51.424;6.762;2023-05-10T06:15:46;35.13;;;24.90;;
9007;SDS011;62813;51.424;6.762;2023-05-10T06:18:13;34.73;;;24.07;;
9007;SDS011;62813;51.424;6.762;2023-05-10T06:20:42;34.97;;;24.40;;
9007;SDS011;62813;51.424;6.762;2023-05-10T06:23:11;32.97;;;24.33;;
9007;SDS011;62813;51.424;6.762;2023-05-10T06:25:38;35.47;;;25.53;;
9007;SDS011;62813;51.424;6.762;2023-05-10T06:28:04;38.17;;;26.13;;
9007;SDS011;62813;51.424;6.762;2023-05-10T06:30:31;39.80;;;26.30;;
9007;SDS011;62813;51.424;6.762;2023-05-10T06:32:58;41.00;;;28.97;;
9007;SDS011;62813;51.424;6.762;2023-05-10T06:35:25;40.07;;;27.37;;
9007;SDS011;62813;51.424;6.762;2023-05-10T06:37:52;46.10;;;27.60;;
9007;SDS011;62813;51.424;6.762;2023-05-10T06:40:18;38.57;;;26.13;;
9007;SDS011;62813;51.424;6.762;2023-05-10T06:42:45;34.43;;;24.07;;
9007;SDS011;62813;51.424;6.762;2023-05-10T06:45:13;37.33;;;24.87;;
9007;SDS011;62813;51.424;6.762;2023-05-10T06:47:40;36.30;;;24.60;;
9007;SDS011;62813;51.424;6.762;2023-05-10T06:50:09;38.30;;;25.80;;
9007;SDS011;62813;51.424;6.762;2023-05-10T06:52:37;37.40;;;25.73;;
9007;SDS011;62813;51.424;6.762;2023-05-10T06:55:04;36.50;;;23.90;;
9007;SDS011;62813;51.424;6.762;2023-05-10T06:57:31;38.53;;;25.37;;
9007;SDS011;62813;51.424;6.762;2023-05-10T06:59:58;36.70;;;24.93;;
9007;SDS011;62813;51.424;6.762;2023-05-10T07:02:25;36.23;;;23.73;;
9007;SDS011;62813;51.424;6.762;2023-05-10T07:04:52;35.83;;;24.77;;
9007;SDS011;62813;51.424;6.762;2023-05-10T07:07:19;35.27;;;24.67;;
9007;SDS011;62813;51.424;6.762;2023-05-10T07:09:46;37.27;;;24.17;;
9007;SDS011;62813;51.424;6.762;2023-05-10T07:12:12;34.60;;;24.83;;
9007;SDS011;62813;51.424;6.762;2023-05-10T07:14:40;35.70;;;24.27;;
9007;SDS011;62813;51.424;6.762;2023-05-10T07:17:07;35.33;;;24.93;;
9007;SDS011;62813;51.424;6.762;2023-05-10T07:19:34;37.97;;;24.67;;
9007;SDS011;62813;51.424;6.762;2023-05-10T07:22:00;35.47;;;24.33;;
9007;SDS011;62813;51.424;6.762;2023-05-10T07:24:29;31.93;;;22.10;;
9007;SDS011;62813;51.424;6.762;2023-05-10T07:26:57;32.33;;;22.00;;
9007;SDS011;62813;51.424;6.762;2023-05-10T07:29:24;32.90;;;22.30;;
9007;SDS011;62813;51.424;6.762;2023-05-10T07:31:50;29.73;;;21.43;;
9007;SDS011;62813;51.424;6.762;2023-05-10T07:34:17;35.37;;;21.50;;
9007;SDS011;62813;51.424;6.762;2023-05-10T07:36:43;31.50;;;20.27;;
9007;SDS011;62813;51.424;6.762;2023-05-10T07:39:10;28.73;;;19.47;;
9007;SDS011;62813;51.424;6.762;2023-05-10T07:41:46;25.87;;;19.47;;
9007;SDS011;62813;51.424;6.762;2023-05-10T07:44:13;30.00;;;20.47;;
9007;SDS011;62813;51.424;6.762;2023-05-10T07:46:39;26.03;;;18.30;;
9007;SDS011;62813;51.424;6.762;2023-05-10T07:49:09;29.63;;;19.37;;
9007;SDS011;62813;51.424;6.762;2023-05-10T07:51:38;27.40;;;19.63;;
9007;SDS011;62813;51.424;6.762;2023-05-10T07:54:05;27.40;;;19.07;;
9007;SDS011;62813;51.424;6.762;2023-05-10T07:56:32;32.47;;;21.07;;
9007;SDS011;62813;51.424;6.762;2023-05-10T07:58:59;28.67;;;20.57;;
9007;SDS011;62813;51.424;6.762;2023-05-10T08:01:29;28.83;;;19.77;;
9007;SDS011;62813;51.424;6.762;2023-05-10T08:03:56;26.97;;;19.13;;
9007;SDS011;62813;51.424;6.762;2023-05-10T08:06:23;30.93;;;20.33;;
9007;SDS011;62813;51.424;6.762;2023-05-10T08:08:49;30.53;;;21.67;;
9007;SDS011;62813;51.424;6.762;2023-05-10T08:11:17;32.47;;;21.23;;
9007;SDS011;62813;51.424;6.762;2023-05-10T08:13:47;32.40;;;21.53;;
9007;SDS011;62813;51.424;6.762;2023-05-10T08:16:14;33.47;;;22.40;;
9007;SDS011;62813;51.424;6.762;2023-05-10T08:18:43;37.03;;;22.47;;
9007;SDS011;62813;51.424;6.762;2023-05-10T08:21:09;36.67;;;23.30;;
9007;SDS011;62813;51.424;6.762;2023-05-10T08:23:37;31.93;;;21.97;;
9007;SDS011;62813;51.424;6.762;2023-05-10T08:26:04;34.93;;;24.37;;
9007;SDS011;62813;51.424;6.762;2023-05-10T08:28:30;30.77;;;20.80;;
9007;SDS011;62813;51.424;6.762;2023-05-10T08:30:57;34.30;;;22.60;;
9007;SDS011;62813;51.424;6.762;2023-05-10T08:33:24;31.03;;;21.83;;
9007;SDS011;62813;51.424;6.762;2023-05-10T08:35:51;28.33;;;20.73;;
9007;SDS011;62813;51.424;6.762;2023-05-10T08:38:17;29.13;;;19.57;;
9007;SDS011;62813;51.424;6.762;2023-05-10T08:40:44;32.07;;;20.30;;
9007;SDS011;62813;51.424;6.762;2023-05-10T08:43:12;26.43;;;18.77;;
9007;SDS011;62813;51.424;6.762;2023-05-10T08:45:41;28.40;;;20.03;;
9007;SDS011;62813;51.424;6.762;2023-05-10T08:48:09;30.00;;;20.23;;
9007;SDS011;62813;51.424;6.762;2023-05-10T08:50:37;29.03;;;20.00;;
9007;SDS011;62813;51.424;6.762;2023-05-10T08:53:05;31.20;;;21.50;;
9007;SDS011;62813;51.424;6.762;2023-05-10T08:55:32;27.03;;;20.30;;
9007;SDS011;62813;51.424;6.762;2023-05-10T08:58:00;30.33;;;19.97;;
9007;SDS011;62813;51.424;6.762;2023-05-10T09:00:26;26.70;;;19.40;;
9007;SDS011;62813;51.424;6.762;2023-05-10T09:02:53;29.53;;;20.53;;
9007;SDS011;62813;51.424;6.762;2023-05-10T09:05:20;27.93;;;19.93;;
9007;SDS011;62813;51.424;6.762;2023-05-10T09:07:46;29.00;;;20.17;;
9007;SDS011;62813;51.424;6.762;2023-05-10T09:10:13;25.30;;;19.43;;
9007;SDS011;62813;51.424;6.762;2023-05-10T09:12:40;24.27;;;18.20;;
9007;SDS011;62813;51.424;6.762;2023-05-10T09:15:07;27.67;;;18.00;;
9007;SDS011;62813;51.424;6.762;2023-05-10T09:17:35;24.30;;;17.07;;
9007;SDS011;62813;51.424;6.762;2023-05-10T09:20:03;24.13;;;17.13;;
9007;SDS011;62813;51.424;6.762;2023-05-10T09:22:33;25.77;;;17.70;;
9007;SDS011;62813;51.424;6.762;2023-05-10T09:25:04;19.33;;;15.20;;
9007;SDS011;62813;51.424;6.762;2023-05-10T09:27:31;21.30;;;16.83;;
9007;SDS011;62813;51.424;6.762;2023-05-10T09:29:58;24.17;;;16.17;;
9007;SDS011;62813;51.424;6.762;2023-05-10T09:35:07;22.27;;;15.37;;
9007;SDS011;62813;51.424;6.762;2023-05-10T09:37:35;22.13;;;15.37;;
9007;SDS011;62813;51.424;6.762;2023-05-10T09:40:05;19.40;;;14.60;;
9007;SDS011;62813;51.424;6.762;2023-05-10T09:42:34;20.40;;;14.63;;
9007;SDS011;62813;51.424;6.762;2023-05-10T09:45:03;20.97;;;15.13;;
9007;SDS011;62813;51.424;6.762;2023-05-10T09:47:34;19.63;;;14.40;;
9007;SDS011;62813;51.424;6.762;2023-05-10T09:50:01;20.17;;;14.77;;
9007;SDS011;62813;51.424;6.762;2023-05-10T09:52:30;24.60;;;15.90;;
9007;SDS011;62813;51.424;6.762;2023-05-10T09:54:57;19.13;;;14.43;;
9007;SDS011;62813;51.424;6.762;2023-05-10T09:57:24;22.63;;;15.80;;
9007;SDS011;62813;51.424;6.762;2023-05-10T09:59:52;23.17;;;15.80;;
9007;SDS011;62813;51.424;6.762;2023-05-10T10:02:20;19.90;;;15.27;;
9007;SDS011;62813;51.424;6.762;2023-05-10T10:04:48;22.13;;;15.83;;
9007;SDS011;62813;51.424;6.762;2023-05-10T10:07:15;24.00;;;16.17;;
9007;SDS011;62813;51.424;6.762;2023-05-10T10:09:48;23.37;;;15.37;;
9007;SDS011;62813;51.424;6.762;2023-05-10T10:12:18;20.60;;;15.73;;
9007;SDS011;62813;51.424;6.762;2023-05-10T10:14:46;17.97;;;14.70;;
9007;SDS011;62813;51.424;6.762;2023-05-10T10:17:13;14.60;;;12.87;;
9007;SDS011;62813;51.424;6.762;2023-05-10T10:19:40;17.33;;;13.83;;
9007;SDS011;62813;51.424;6.762;2023-05-10T10:22:07;18.53;;;13.47;;
9007;SDS011;62813;51.424;6.762;2023-05-10T10:24:34;24.37;;;14.43;;
9007;SDS011;62813;51.424;6.762;2023-05-10T10:29:49;19.83;;;13.67;;
9007;SDS011;62813;51.424;6.762;2023-05-10T10:34:44;15.80;;;12.90;;
9007;SDS011;62813;51.424;6.762;2023-05-10T10:37:11;20.00;;;13.40;;
9007;SDS011;62813;51.424;6.762;2023-05-10T10:39:38;18.07;;;14.33;;
9007;SDS011;62813;51.424;6.762;2023-05-10T10:42:04;17.73;;;14.63;;
9007;SDS011;62813;51.424;6.762;2023-05-10T10:49:32;21.40;;;15.13;;
9007;SDS011;62813;51.424;6.762;2023-05-10T11:00:23;20.80;;;15.83;;
9007;SDS011;62813;51.424;6.762;2023-05-10T11:02:51;21.00;;;15.90;;
9007;SDS011;62813;51.424;6.762;2023-05-10T11:08:09;22.03;;;16.80;;
9007;SDS011;62813;51.424;6.762;2023-05-10T11:10:39;22.87;;;15.70;;
9007;SDS011;62813;51.424;6.762;2023-05-10T11:13:15;15.77;;;14.10;;
9007;SDS011;62813;51.424;6.762;2023-05-10T11:15:50;15.90;;;13.43;;
9007;SDS011;62813;51.424;6.762;2023-05-10T11:23:18;19.07;;;13.47;;
9007;SDS011;62813;51.424;6.762;2023-05-10T11:25:46;17.37;;;13.33;;
9007;SDS011;62813;51.424;6.762;2023-05-10T11:28:12;15.73;;;12.07;;
9007;SDS011;62813;51.424;6.762;2023-05-10T11:30:39;13.20;;;11.23;;
9007;SDS011;62813;51.424;6.762;2023-05-10T11:33:07;14.83;;;10.40;;
9007;SDS011;62813;51.424;6.762;2023-05-10T11:35:37;12.23;;;10.30;;
9007;SDS011;62813;51.424;6.762;2023-05-10T11:38:09;15.90;;;11.57;;
9007;SDS011;62813;51.424;6.762;2023-05-10T11:40:36;13.93;;;10.80;;
9007;SDS011;62813;51.424;6.762;2023-05-10T11:43:03;11.80;;;9.67;;
9007;SDS011;62813;51.424;6.762;2023-05-10T11:45:33;11.67;;;9.20;;
9007;SDS011;62813;51.424;6.762;2023-05-10T11:47:59;11.73;;;8.77;;
9007;SDS011;62813;51.424;6.762;2023-05-10T11:50:27;8.40;;;6.80;;
9007;SDS011;62813;51.424;6.762;2023-05-10T11:52:54;10.47;;;6.90;;
9007;SDS011;62813;51.424;6.762;2023-05-10T11:55:21;8.10;;;5.90;;
9007;SDS011;62813;51.424;6.762;2023-05-10T11:57:51;11.20;;;7.17;;
9007;SDS011;62813;51.424;6.762;2023-05-10T12:00:18;10.33;;;7.73;;
9007;SDS011;62813;51.424;6.762;2023-05-10T12:02:45;12.97;;;7.20;;
9007;SDS011;62813;51.424;6.762;2023-05-10T12:05:11;8.80;;;6.57;;
9007;SDS011;62813;51.424;6.762;2023-05-10T12:07:38;7.70;;;6.43;;
9007;SDS011;62813;51.424;6.762;2023-05-10T12:10:13;13.03;;;7.47;;
9007;SDS011;62813;51.424;6.762;2023-05-10T12:12:45;9.37;;;6.57;;
9007;SDS011;62813;51.424;6.762;2023-05-10T12:15:12;9.03;;;6.70;;
9007;SDS011;62813;51.424;6.762;2023-05-10T12:17:43;8.30;;;6.73;;
9007;SDS011;62813;51.424;6.762;2023-05-10T12:20:16;9.47;;;5.60;;
9007;SDS011;62813;51.424;6.762;2023-05-10T12:22:54;7.33;;;6.60;;
9007;SDS011;62813;51.424;6.762;2023-05-10T12:25:23;8.23;;;6.13;;
9007;SDS011;62813;51.424;6.762;2023-05-10T12:27:51;7.47;;;5.70;;
9007;SDS011;62813;51.424;6.762;2023-05-10T12:30:22;6.80;;;6.10;;
9007;SDS011;62813;51.424;6.762;2023-05-10T12:32:49;11.37;;;6.70;;
9007;SDS011;62813;51.424;6.762;2023-05-10T12:35:16;16.27;;;14.03;;
9007;SDS011;62813;51.424;6.762;2023-05-10T12:37:43;18.07;;;14.50;;
9007;SDS011;62813;51.424;6.762;2023-05-10T12:40:10;17.90;;;15.97;;
9007;SDS011;62813;51.424;6.762;2023-05-10T12:42:37;16.40;;;11.47;;
9007;SDS011;62813;51.424;6.762;2023-05-10T12:45:04;11.00;;;8.07;;
9007;SDS011;62813;51.424;6.762;2023-05-10T12:47:32;8.37;;;6.70;;
9007;SDS011;62813;51.424;6.762;2023-05-10T12:49:59;6.87;;;6.00;;
9007;SDS011;62813;51.424;6.762;2023-05-10T12:52:27;7.17;;;5.30;;
9007;SDS011;62813;51.424;6.762;2023-05-10T12:54:54;10.47;;;6.03;;
9007;SDS011;62813;51.424;6.762;2023-05-10T12:57:20;7.57;;;5.30;;
9007;SDS011;62813;51.424;6.762;2023-05-10T12:59:48;7.73;;;5.80;;
9007;SDS011;62813;51.424;6.762;2023-05-10T13:02:14;9.30;;;6.50;;
9007;SDS011;62813;51.424;6.762;2023-05-10T13:04:41;7.03;;;6.03;;
9007;SDS011;62813;51.424;6.762;2023-05-10T13:07:08;7.80;;;6.57;;
9007;SDS011;62813;51.424;6.762;2023-05-10T13:09:35;8.43;;;6.90;;
9007;SDS011;62813;51.424;6.762;2023-05-10T13:12:01;11.37;;;6.87;;
9007;SDS011;62813;51.424;6.762;2023-05-10T13:14:28;7.57;;;6.63;;
9007;SDS011;62813;51.424;6.762;2023-05-10T13:16:55;6.67;;;6.07;;
9007;SDS011;62813;51.424;6.762;2023-05-10T13:19:22;9.27;;;5.77;;
9007;SDS011;62813;51.424;6.762;2023-05-10T13:21:48;6.90;;;5.83;;
9007;SDS011;62813;51.424;6.762;2023-05-10T13:24:15;18.80;;;7.53;;
9007;SDS011;62813;51.424;6.762;2023-05-10T13:26:42;10.07;;;6.70;;
9007;SDS011;62813;51.424;6.762;2023-05-10T13:29:08;6.33;;;5.70;;
9007;SDS011;62813;51.424;6.762;2023-05-10T13:31:35;6.73;;;5.97;;
9007;SDS011;62813;51.424;6.762;2023-05-10T13:34:02;8.80;;;6.20;;
9007;SDS011;62813;51.424;6.762;2023-05-10T13:36:29;7.50;;;6.80;;
9007;SDS011;62813;51.424;6.762;2023-05-10T13:38:55;6.83;;;5.97;;
9007;SDS011;62813;51.424;6.762;2023-05-10T13:41:22;7.63;;;6.57;;
9007;SDS011;62813;51.424;6.762;2023-05-10T13:43:49;9.13;;;7.53;;
9007;SDS011;62813;51.424;6.762;2023-05-10T13:46:15;7.93;;;6.80;;
9007;SDS011;62813;51.424;6.762;2023-05-10T13:48:42;8.90;;;6.80;;
9007;SDS011;62813;51.424;6.762;2023-05-10T13:51:08;9.30;;;7.33;;
9007;SDS011;62813;51.424;6.762;2023-05-10T13:53:35;9.13;;;7.90;;
9007;SDS011;62813;51.424;6.762;2023-05-10T13:56:02;9.40;;;7.93;;
9007;SDS011;62813;51.424;6.762;2023-05-10T13:58:29;8.50;;;7.60;;
9007;SDS011;62813;51.424;6.762;2023-05-10T14:00:56;8.93;;;6.93;;
9007;SDS011;62813;51.424;6.762;2023-05-10T14:03:23;10.33;;;7.20;;
9007;SDS011;62813;51.424;6.762;2023-05-10T14:05:49;9.30;;;7.50;;
9007;SDS011;62813;51.424;6.762;2023-05-10T14:08:16;8.63;;;7.30;;
9007;SDS011;62813;51.424;6.762;2023-05-10T14:10:43;7.27;;;6.20;;
9007;SDS011;62813;51.424;6.762;2023-05-10T14:13:10;7.30;;;6.57;;
9007;SDS011;62813;51.424;6.762;2023-05-10T14:15:36;7.20;;;6.17;;
9007;SDS011;62813;51.424;6.762;2023-05-10T14:18:03;7.77;;;6.97;;
9007;SDS011;62813;51.424;6.762;2023-05-10T14:20:30;8.93;;;7.37;;
9007;SDS011;62813;51.424;6.762;2023-05-10T14:22:58;7.03;;;6.33;;
9007;SDS011;62813;51.424;6.762;2023-05-10T14:25:24;9.53;;;7.63;;
9007;SDS011;62813;51.424;6.762;2023-05-10T14:27:51;9.20;;;7.27;;
9007;SDS011;62813;51.424;6.762;2023-05-10T14:30:21;7.90;;;7.10;;
9007;SDS011;62813;51.424;6.762;2023-05-10T14:32:47;7.23;;;6.10;;
9007;SDS011;62813;51.424;6.762;2023-05-10T14:35:14;6.87;;;5.87;;
9007;SDS011;62813;51.424;6.762;2023-05-10T14:37:44;11.60;;;7.73;;
9007;SDS011;62813;51.424;6.762;2023-05-10T14:40:11;9.97;;;8.53;;
9007;SDS011;62813;51.424;6.762;2023-05-10T14:42:38;9.73;;;8.53;;
9007;SDS011;62813;51.424;6.762;2023-05-10T14:45:05;12.13;;;9.90;;
9007;SDS011;62813;51.424;6.762;2023-05-10T14:47:31;12.07;;;9.90;;
9007;SDS011;62813;51.424;6.762;2023-05-10T14:49:58;10.57;;;9.57;;
9007;SDS011;62813;51.424;6.762;2023-05-10T14:52:25;13.73;;;11.10;;
9007;SDS011;62813;51.424;6.762;2023-05-10T14:54:52;14.57;;;11.40;;
9007;SDS011;62813;51.424;6.762;2023-05-10T14:57:18;12.23;;;10.93;;
9007;SDS011;62813;51.424;6.762;2023-05-10T14:59:46;11.53;;;10.33;;
9007;SDS011;62813;51.424;6.762;2023-05-10T15:02:13;12.60;;;11.20;;
9007;SDS011;62813;51.424;6.762;2023-05-10T15:04:40;15.17;;;12.37;;
9007;SDS011;62813;51.424;6.762;2023-05-10T15:07:07;13.10;;;11.63;;
9007;SDS011;62813;51.424;6.762;2023-05-10T15:09:33;14.07;;;12.60;;
9007;SDS011;62813;51.424;6.762;2023-05-10T15:12:00;14.93;;;13.33;;
9007;SDS011;62813;51.424;6.762;2023-05-10T15:14:27;15.27;;;12.30;;
9007;SDS011;62813;51.424;6.762;2023-05-10T15:16:53;16.97;;;13.50;;
9007;SDS011;62813;51.424;6.762;2023-05-10T15:19:30;15.77;;;13.80;;
9007;SDS011;62813;51.424;6.762;2023-05-10T15:21:56;15.27;;;13.37;;
9007;SDS011;62813;51.424;6.762;2023-05-10T15:24:23;15.57;;;13.17;;
9007;SDS011;62813;51.424;6.762;2023-05-10T15:26:49;16.67;;;13.93;;
9007;SDS011;62813;51.424;6.762;2023-05-10T15:29:16;17.77;;;14.47;;